sensor_id;sensor_type;location;lat;lon;timestamp;temperature;humidity
32147;DHT22;32190;49.112;8.598;2024-02-26T00:05:41;10.90;54.90
32147;DHT22;32190;49.112;8.598;2024-02-26T00:11:31;10.90;54.90
32147;DHT22;32190;49.112;8.598;2024-02-26T00:17:25;11.00;54.80
32147;DHT22;32190;49.112;8.598;2024-02-26T00:23:16;11.00;54.80
32147;DHT22;32190;49.112;8.598;2024-02-26T00:29:07;11.00;54.90
32147;DHT22;32190;49.112;8.598;2024-02-26T00:35:00;11.00;54.80
32147;DHT22;32190;49.112;8.598;2024-02-26T00:40:51;11.00;54.80
32147;DHT22;32190;49.112;8.598;2024-02-26T00:46:41;11.10;54.90
32147;DHT22;32190;49.112;8.598;2024-02-26T00:52:34;11.10;55.00
32147;DHT22;32190;49.112;8.598;2024-02-26T00:58:26;11.10;55.00
32147;DHT22;32190;49.112;8.598;2024-02-26T01:04:16;11.10;55.50
32147;DHT22;32190;49.112;8.598;2024-02-26T01:10:07;11.10;54.90
32147;DHT22;32190;49.112;8.598;2024-02-26T01:15:58;11.10;55.00
32147;DHT22;32190;49.112;8.598;2024-02-26T01:21:56;11.10;55.10
32147;DHT22;32190;49.112;8.598;2024-02-26T01:27:47;11.10;55.20
32147;DHT22;32190;49.112;8.598;2024-02-26T01:33:41;11.20;55.40
32147;DHT22;32190;49.112;8.598;2024-02-26T01:39:36;11.10;55.70
32147;DHT22;32190;49.112;8.598;2024-02-26T01:45:27;11.10;56.00
32147;DHT22;32190;49.112;8.598;2024-02-26T01:51:18;11.10;56.00
32147;DHT22;32190;49.112;8.598;2024-02-26T01:57:10;11.10;56.10
32147;DHT22;32190;49.112;8.598;2024-02-26T02:03:04;11.10;56.30
32147;DHT22;32190;49.112;8.598;2024-02-26T02:08:55;11.10;56.40
32147;DHT22;32190;49.112;8.598;2024-02-26T02:14:46;11.10;56.80
32147;DHT22;32190;49.112;8.598;2024-02-26T02:20:36;11.10;57.10
32147;DHT22;32190;49.112;8.598;2024-02-26T02:26:30;11.10;57.50
32147;DHT22;32190;49.112;8.598;2024-02-26T02:32:21;11.00;57.80
32147;DHT22;32190;49.112;8.598;2024-02-26T02:38:22;11.00;58.00
32147;DHT22;32190;49.112;8.598;2024-02-26T02:44:14;11.00;58.00
32147;DHT22;32190;49.112;8.598;2024-02-26T02:50:05;11.00;58.10
32147;DHT22;32190;49.112;8.598;2024-02-26T02:55:56;11.00;58.00
32147;DHT22;32190;49.112;8.598;2024-02-26T03:01:52;11.00;58.20
32147;DHT22;32190;49.112;8.598;2024-02-26T03:07:45;11.00;59.00
32147;DHT22;32190;49.112;8.598;2024-02-26T03:13:36;11.00;58.90
32147;DHT22;32190;49.112;8.598;2024-02-26T03:19:32;11.00;58.80
32147;DHT22;32190;49.112;8.598;2024-02-26T03:25:23;11.00;58.90
32147;DHT22;32190;49.112;8.598;2024-02-26T03:31:16;10.90;59.10
32147;DHT22;32190;49.112;8.598;2024-02-26T03:37:13;10.90;59.30
32147;DHT22;32190;49.112;8.598;2024-02-26T03:43:04;10.90;59.40
32147;DHT22;32190;49.112;8.598;2024-02-26T03:48:59;10.90;59.60
32147;DHT22;32190;49.112;8.598;2024-02-26T03:54:57;10.80;59.60
32147;DHT22;32190;49.112;8.598;2024-02-26T04:00:51;10.80;60.30
32147;DHT22;32190;49.112;8.598;2024-02-26T04:06:47;10.90;59.90
32147;DHT22;32190;49.112;8.598;2024-02-26T04:12:39;10.90;60.40
32147;DHT22;32190;49.112;8.598;2024-02-26T04:18:34;10.80;59.90
32147;DHT22;32190;49.112;8.598;2024-02-26T04:24:27;10.70;60.40
32147;DHT22;32190;49.112;8.598;2024-02-26T04:30:17;10.70;60.60
32147;DHT22;32190;49.112;8.598;2024-02-26T04:36:13;10.70;60.50
32147;DHT22;32190;49.112;8.598;2024-02-26T04:42:08;10.70;60.90
32147;DHT22;32190;49.112;8.598;2024-02-26T04:48:03;10.70;60.70
32147;DHT22;32190;49.112;8.598;2024-02-26T04:53:54;10.70;60.60
32147;DHT22;32190;49.112;8.598;2024-02-26T04:59:44;10.70;60.50
32147;DHT22;32190;49.112;8.598;2024-02-26T05:05:36;10.70;60.60
32147;DHT22;32190;49.112;8.598;2024-02-26T05:11:26;10.70;60.60
32147;DHT22;32190;49.112;8.598;2024-02-26T05:17:17;10.70;60.60
32147;DHT22;32190;49.112;8.598;2024-02-26T05:23:07;10.70;60.70
32147;DHT22;32190;49.112;8.598;2024-02-26T05:28:58;10.70;60.80
32147;DHT22;32190;49.112;8.598;2024-02-26T05:34:49;10.70;60.90
32147;DHT22;32190;49.112;8.598;2024-02-26T05:40:43;10.70;61.00
32147;DHT22;32190;49.112;8.598;2024-02-26T05:46:36;10.70;61.10
32147;DHT22;32190;49.112;8.598;2024-02-26T05:52:29;10.70;61.20
32147;DHT22;32190;49.112;8.598;2024-02-26T05:58:21;10.70;61.40
32147;DHT22;32190;49.112;8.598;2024-02-26T06:04:12;10.70;61.20
32147;DHT22;32190;49.112;8.598;2024-02-26T06:10:03;10.70;61.20
32147;DHT22;32190;49.112;8.598;2024-02-26T06:15:55;10.70;61.30
32147;DHT22;32190;49.112;8.598;2024-02-26T06:21:47;10.70;61.40
32147;DHT22;32190;49.112;8.598;2024-02-26T06:27:40;10.70;61.50
32147;DHT22;32190;49.112;8.598;2024-02-26T06:33:31;10.70;61.60
32147;DHT22;32190;49.112;8.598;2024-02-26T06:39:45;10.70;61.70
32147;DHT22;32190;49.112;8.598;2024-02-26T06:45:36;10.70;62.60
32147;DHT22;32190;49.112;8.598;2024-02-26T06:51:35;10.70;61.80
32147;DHT22;32190;49.112;8.598;2024-02-26T06:57:27;10.70;62.40
32147;DHT22;32190;49.112;8.598;2024-02-26T07:03:18;10.70;61.90
32147;DHT22;32190;49.112;8.598;2024-02-26T07:09:19;10.70;61.90
32147;DHT22;32190;49.112;8.598;2024-02-26T07:15:21;10.70;62.40
32147;DHT22;32190;49.112;8.598;2024-02-26T07:21:12;10.80;62.00
32147;DHT22;32190;49.112;8.598;2024-02-26T07:27:08;10.80;62.10
32147;DHT22;32190;49.112;8.598;2024-02-26T07:33:02;10.80;62.40
32147;DHT22;32190;49.112;8.598;2024-02-26T07:38:56;10.80;62.30
32147;DHT22;32190;49.112;8.598;2024-02-26T07:44:47;10.90;62.70
32147;DHT22;32190;49.112;8.598;2024-02-26T07:50:45;10.90;62.40
32147;DHT22;32190;49.112;8.598;2024-02-26T07:56:42;10.90;62.30
32147;DHT22;32190;49.112;8.598;2024-02-26T08:02:32;11.00;62.50
32147;DHT22;32190;49.112;8.598;2024-02-26T08:08:24;11.00;62.60
32147;DHT22;32190;49.112;8.598;2024-02-26T08:14:15;11.00;62.70
32147;DHT22;32190;49.112;8.598;2024-02-26T08:20:05;11.10;62.80
32147;DHT22;32190;49.112;8.598;2024-02-26T08:25:59;11.10;63.00
32147;DHT22;32190;49.112;8.598;2024-02-26T08:31:50;11.20;63.10
32147;DHT22;32190;49.112;8.598;2024-02-26T08:37:44;11.20;63.10
32147;DHT22;32190;49.112;8.598;2024-02-26T08:43:35;11.30;63.60
32147;DHT22;32190;49.112;8.598;2024-02-26T08:49:25;11.30;63.40
32147;DHT22;32190;49.112;8.598;2024-02-26T08:55:16;11.40;63.60
32147;DHT22;32190;49.112;8.598;2024-02-26T09:01:07;11.40;63.90
32147;DHT22;32190;49.112;8.598;2024-02-26T09:07:05;11.50;64.00
32147;DHT22;32190;49.112;8.598;2024-02-26T09:13:05;11.60;64.70
32147;DHT22;32190;49.112;8.598;2024-02-26T09:18:56;11.70;63.90
32147;DHT22;32190;49.112;8.598;2024-02-26T09:24:47;11.80;63.90
32147;DHT22;32190;49.112;8.598;2024-02-26T09:30:57;11.90;63.80
32147;DHT22;32190;49.112;8.598;2024-02-26T09:36:48;11.90;63.90
32147;DHT22;32190;49.112;8.598;2024-02-26T09:42:43;12.00;63.40
32147;DHT22;32190;49.112;8.598;2024-02-26T09:48:37;12.10;63.90
32147;DHT22;32190;49.112;8.598;2024-02-26T09:54:31;12.10;63.60
32147;DHT22;32190;49.112;8.598;2024-02-26T10:00:25;12.20;63.80
32147;DHT22;32190;49.112;8.598;2024-02-26T10:06:16;12.30;63.50
32147;DHT22;32190;49.112;8.598;2024-02-26T10:12:12;12.30;63.60
32147;DHT22;32190;49.112;8.598;2024-02-26T10:18:07;12.40;63.50
32147;DHT22;32190;49.112;8.598;2024-02-26T10:24:16;12.40;63.30
32147;DHT22;32190;49.112;8.598;2024-02-26T10:30:22;12.50;63.80
32147;DHT22;32190;49.112;8.598;2024-02-26T10:36:22;12.60;63.60
32147;DHT22;32190;49.112;8.598;2024-02-26T10:42:13;12.70;63.10
32147;DHT22;32190;49.112;8.598;2024-02-26T10:48:22;12.80;63.10
32147;DHT22;32190;49.112;8.598;2024-02-26T10:54:15;12.90;63.70
32147;DHT22;32190;49.112;8.598;2024-02-26T11:00:06;13.00;63.20
32147;DHT22;32190;49.112;8.598;2024-02-26T11:06:05;13.00;62.90
32147;DHT22;32190;49.112;8.598;2024-02-26T11:12:02;13.20;62.70
32147;DHT22;32190;49.112;8.598;2024-02-26T11:17:58;13.20;62.70
32147;DHT22;32190;49.112;8.598;2024-02-26T11:23:49;13.30;62.50
32147;DHT22;32190;49.112;8.598;2024-02-26T11:29:52;13.40;62.30
32147;DHT22;32190;49.112;8.598;2024-02-26T11:35:45;13.50;62.10
32147;DHT22;32190;49.112;8.598;2024-02-26T11:41:43;13.60;62.20
32147;DHT22;32190;49.112;8.598;2024-02-26T11:47:35;13.80;62.10
32147;DHT22;32190;49.112;8.598;2024-02-26T11:53:54;13.80;61.60
32147;DHT22;32190;49.112;8.598;2024-02-26T11:59:47;13.90;61.30
32147;DHT22;32190;49.112;8.598;2024-02-26T12:05:42;14.00;61.10
32147;DHT22;32190;49.112;8.598;2024-02-26T12:11:32;14.10;61.00
32147;DHT22;32190;49.112;8.598;2024-02-26T12:17:26;14.20;60.80
32147;DHT22;32190;49.112;8.598;2024-02-26T12:23:17;14.40;60.70
32147;DHT22;32190;49.112;8.598;2024-02-26T12:29:11;14.60;60.20
32147;DHT22;32190;49.112;8.598;2024-02-26T12:35:02;14.80;59.80
32147;DHT22;32190;49.112;8.598;2024-02-26T12:40:54;14.90;59.20
32147;DHT22;32190;49.112;8.598;2024-02-26T12:46:44;15.10;59.10
32147;DHT22;32190;49.112;8.598;2024-02-26T12:52:37;15.10;58.80
32147;DHT22;32190;49.112;8.598;2024-02-26T12:58:42;15.20;58.60
32147;DHT22;32190;49.112;8.598;2024-02-26T13:04:33;15.30;58.40
32147;DHT22;32190;49.112;8.598;2024-02-26T13:10:31;15.40;58.30
32147;DHT22;32190;49.112;8.598;2024-02-26T13:16:42;15.50;58.30
32147;DHT22;32190;49.112;8.598;2024-02-26T13:22:44;15.60;58.00
32147;DHT22;32190;49.112;8.598;2024-02-26T13:28:45;15.70;57.80
32147;DHT22;32190;49.112;8.598;2024-02-26T13:34:36;15.70;57.30
32147;DHT22;32190;49.112;8.598;2024-02-26T13:40:26;15.80;57.40
32147;DHT22;32190;49.112;8.598;2024-02-26T13:46:21;15.80;57.20
32147;DHT22;32190;49.112;8.598;2024-02-26T13:52:15;15.80;57.00
32147;DHT22;32190;49.112;8.598;2024-02-26T13:58:06;15.90;56.90
32147;DHT22;32190;49.112;8.598;2024-02-26T14:03:57;15.90;56.80
32147;DHT22;32190;49.112;8.598;2024-02-26T14:09:50;15.90;56.60
32147;DHT22;32190;49.112;8.598;2024-02-26T14:15:45;16.00;56.60
32147;DHT22;32190;49.112;8.598;2024-02-26T14:21:42;16.00;56.90
32147;DHT22;32190;49.112;8.598;2024-02-26T14:27:38;16.10;56.10
32147;DHT22;32190;49.112;8.598;2024-02-26T14:33:29;16.20;56.00
32147;DHT22;32190;49.112;8.598;2024-02-26T14:39:31;16.30;56.00
32147;DHT22;32190;49.112;8.598;2024-02-26T14:45:22;16.30;55.20
32147;DHT22;32190;49.112;8.598;2024-02-26T14:51:19;16.40;55.50
32147;DHT22;32190;49.112;8.598;2024-02-26T14:57:18;16.30;55.10
32147;DHT22;32190;49.112;8.598;2024-02-26T15:03:18;16.30;55.00
32147;DHT22;32190;49.112;8.598;2024-02-26T15:09:11;16.30;55.00
32147;DHT22;32190;49.112;8.598;2024-02-26T15:15:01;16.40;55.50
32147;DHT22;32190;49.112;8.598;2024-02-26T15:20:52;16.40;54.90
32147;DHT22;32190;49.112;8.598;2024-02-26T15:26:53;16.50;54.80
32147;DHT22;32190;49.112;8.598;2024-02-26T15:32:44;16.50;54.60
32147;DHT22;32190;49.112;8.598;2024-02-26T15:38:42;16.50;54.40
32147;DHT22;32190;49.112;8.598;2024-02-26T15:44:39;16.60;54.40
32147;DHT22;32190;49.112;8.598;2024-02-26T15:50:29;16.70;54.20
32147;DHT22;32190;49.112;8.598;2024-02-26T15:56:21;16.70;54.40
32147;DHT22;32190;49.112;8.598;2024-02-26T16:02:27;16.70;54.10
32147;DHT22;32190;49.112;8.598;2024-02-26T16:08:22;16.70;53.50
32147;DHT22;32190;49.112;8.598;2024-02-26T16:20:33;16.60;53.40
32147;DHT22;32190;49.112;8.598;2024-02-26T16:26:24;16.70;53.80
32147;DHT22;32190;49.112;8.598;2024-02-26T16:32:17;16.60;53.90
32147;DHT22;32190;49.112;8.598;2024-02-26T16:38:10;16.50;53.50
32147;DHT22;32190;49.112;8.598;2024-02-26T16:44:01;16.40;53.90
32147;DHT22;32190;49.112;8.598;2024-02-26T16:49:52;16.30;54.00
32147;DHT22;32190;49.112;8.598;2024-02-26T16:55:43;16.20;54.20
32147;DHT22;32190;49.112;8.598;2024-02-26T17:01:34;16.10;54.40
32147;DHT22;32190;49.112;8.598;2024-02-26T17:07:24;16.10;54.70
32147;DHT22;32190;49.112;8.598;2024-02-26T17:13:15;16.00;54.70
32147;DHT22;32190;49.112;8.598;2024-02-26T17:19:30;15.90;55.00
32147;DHT22;32190;49.112;8.598;2024-02-26T17:25:23;15.80;54.60
32147;DHT22;32190;49.112;8.598;2024-02-26T17:31:17;15.70;54.80
32147;DHT22;32190;49.112;8.598;2024-02-26T17:37:08;15.70;55.00
32147;DHT22;32190;49.112;8.598;2024-02-26T17:42:59;15.60;55.00
32147;DHT22;32190;49.112;8.598;2024-02-26T17:48:49;15.60;55.30
32147;DHT22;32190;49.112;8.598;2024-02-26T17:54:40;15.60;55.40
32147;DHT22;32190;49.112;8.598;2024-02-26T18:00:36;15.50;55.50
32147;DHT22;32190;49.112;8.598;2024-02-26T18:06:27;15.50;55.60
32147;DHT22;32190;49.112;8.598;2024-02-26T18:12:26;15.40;55.60
32147;DHT22;32190;49.112;8.598;2024-02-26T18:18:16;15.40;55.80
32147;DHT22;32190;49.112;8.598;2024-02-26T18:24:10;15.40;55.90
32147;DHT22;32190;49.112;8.598;2024-02-26T18:30:07;15.40;56.00
32147;DHT22;32190;49.112;8.598;2024-02-26T18:36:01;15.30;55.80
32147;DHT22;32190;49.112;8.598;2024-02-26T18:42:01;15.30;55.80
32147;DHT22;32190;49.112;8.598;2024-02-26T18:47:53;15.20;55.60
32147;DHT22;32190;49.112;8.598;2024-02-26T18:53:50;15.20;55.80
32147;DHT22;32190;49.112;8.598;2024-02-26T18:59:41;15.20;55.70
32147;DHT22;32190;49.112;8.598;2024-02-26T19:05:33;15.20;55.80
32147;DHT22;32190;49.112;8.598;2024-02-26T19:11:24;15.20;55.80
32147;DHT22;32190;49.112;8.598;2024-02-26T19:17:15;15.10;55.90
32147;DHT22;32190;49.112;8.598;2024-02-26T19:23:07;15.10;56.10
32147;DHT22;32190;49.112;8.598;2024-02-26T19:29:09;15.10;56.20
32147;DHT22;32190;49.112;8.598;2024-02-26T19:35:06;15.00;56.00
32147;DHT22;32190;49.112;8.598;2024-02-26T19:40:56;15.00;55.70
32147;DHT22;32190;49.112;8.598;2024-02-26T19:46:52;15.00;55.70
32147;DHT22;32190;49.112;8.598;2024-02-26T19:52:48;14.90;55.70
32147;DHT22;32190;49.112;8.598;2024-02-26T19:58:42;14.90;55.80
32147;DHT22;32190;49.112;8.598;2024-02-26T20:04:33;14.90;56.10
32147;DHT22;32190;49.112;8.598;2024-02-26T20:10:27;14.90;56.10
32147;DHT22;32190;49.112;8.598;2024-02-26T20:16:17;14.90;56.10
32147;DHT22;32190;49.112;8.598;2024-02-26T20:22:10;14.80;55.60
32147;DHT22;32190;49.112;8.598;2024-02-26T20:28:00;14.80;55.50
32147;DHT22;32190;49.112;8.598;2024-02-26T20:33:51;14.80;55.40
32147;DHT22;32190;49.112;8.598;2024-02-26T20:39:42;14.70;55.50
32147;DHT22;32190;49.112;8.598;2024-02-26T20:45:32;14.70;55.80
32147;DHT22;32190;49.112;8.598;2024-02-26T20:51:25;14.70;55.80
32147;DHT22;32190;49.112;8.598;2024-02-26T20:57:22;14.70;56.40
32147;DHT22;32190;49.112;8.598;2024-02-26T21:03:13;14.60;56.00
32147;DHT22;32190;49.112;8.598;2024-02-26T21:09:24;14.60;55.80
32147;DHT22;32190;49.112;8.598;2024-02-26T21:15:17;14.60;55.80
32147;DHT22;32190;49.112;8.598;2024-02-26T21:21:10;14.60;55.80
32147;DHT22;32190;49.112;8.598;2024-02-26T21:27:01;14.60;55.60
32147;DHT22;32190;49.112;8.598;2024-02-26T21:32:52;14.50;55.40
32147;DHT22;32190;49.112;8.598;2024-02-26T21:38:42;14.50;55.40
32147;DHT22;32190;49.112;8.598;2024-02-26T21:44:33;14.40;55.70
32147;DHT22;32190;49.112;8.598;2024-02-26T21:50:26;14.40;55.50
32147;DHT22;32190;49.112;8.598;2024-02-26T21:56:22;14.30;55.40
32147;DHT22;32190;49.112;8.598;2024-02-26T22:02:13;14.40;55.20
32147;DHT22;32190;49.112;8.598;2024-02-26T22:08:04;14.30;55.50
32147;DHT22;32190;49.112;8.598;2024-02-26T22:13:57;14.20;55.50
32147;DHT22;32190;49.112;8.598;2024-02-26T22:20:09;14.20;55.60
32147;DHT22;32190;49.112;8.598;2024-02-26T22:26:09;14.20;55.50
32147;DHT22;32190;49.112;8.598;2024-02-26T22:32:06;14.10;55.50
32147;DHT22;32190;49.112;8.598;2024-02-26T22:37:56;14.10;55.60
32147;DHT22;32190;49.112;8.598;2024-02-26T22:43:48;14.10;55.60
32147;DHT22;32190;49.112;8.598;2024-02-26T22:49:42;14.00;55.60
32147;DHT22;32190;49.112;8.598;2024-02-26T22:55:50;14.00;55.80
32147;DHT22;32190;49.112;8.598;2024-02-26T23:01:45;14.00;55.90
32147;DHT22;32190;49.112;8.598;2024-02-26T23:07:36;14.00;55.70
32147;DHT22;32190;49.112;8.598;2024-02-26T23:13:27;13.90;55.80
32147;DHT22;32190;49.112;8.598;2024-02-26T23:19:18;13.90;55.90
32147;DHT22;32190;49.112;8.598;2024-02-26T23:25:14;13.90;55.80
32147;DHT22;32190;49.112;8.598;2024-02-26T23:31:05;13.90;55.70
32147;DHT22;32190;49.112;8.598;2024-02-26T23:36:56;13.90;55.80
32147;DHT22;32190;49.112;8.598;2024-02-26T23:42:47;13.80;55.80
32147;DHT22;32190;49.112;8.598;2024-02-26T23:48:38;13.80;55.90
32147;DHT22;32190;49.112;8.598;2024-02-26T23:54:31;13.80;56.00
